Weather at Rio Tuba Airport

Public forecast

Using degrees Celsius for public forecast. Weather courtesy of forecast.io.

Closest aviation weather report (METAR) to Rio Tuba Airport

Closest report is Kudat Airport, 103.9 nm (192.4 km) SSW. Retrieved 2022/08/13 18:00 UTC (40 minutes ago):

WBKT 131800Z VRB02KT 9999 FEW014 25/24 Q1008

Closest aviation forecast (TAF) to Rio Tuba Airport

Closest forecast is Puerto Princesa Airport, 106.2 nm (196.7 km) NE. Retrieved 2022/08/13 18:00 UTC (40 minutes ago):

TAF RPVP 131700Z 1318/1418 27006KT 9999 FEW019 BKN080 TEMPO 1318/1324 -SHRA FEW017CB OVC080